Time;durP1;ratioP1;P1;durP2;ratioP2;P2;SDS_P1;SDS_P2;PMS_P1;PMS_P2;Temp;Humidity;BMP_temperature;BMP_pressure;BME280_temperature;BME280_humidity;BME280_pressure;Samples;Min_cycle;Max_cycle;Signal;HPM_P1;HPM_P2
2023/01/26 00:01:51;;;;;;;29.87;17.93;;;;;;;-2.56;100.00;96759.41;5081491;28;20429;-73
2023/01/26 00:04:17;;;;;;;32.80;18.03;;;;;;;-2.47;100.00;96773.56;5071169;28;20527;-72
2023/01/26 00:06:44;;;;;;;36.07;17.43;;;;;;;-2.75;100.00;96735.53;5081373;28;20545;-73
2023/01/26 00:09:13;;;;;;;27.27;15.60;;;;;;;-2.71;100.00;96767.69;5081354;28;20550;-73
2023/01/26 00:11:40;;;;;;;25.90;16.43;;;;;;;-2.76;100.00;96727.00;5059431;28;20456;-73
2023/01/26 00:14:07;;;;;;;26.67;16.50;;;;;;;-2.69;100.00;96737.97;5056769;28;20969;-73
2023/01/26 00:16:33;;;;;;;22.03;15.73;;;;;;;-2.79;100.00;96677.53;5068839;28;20556;-73
2023/01/26 00:19:01;;;;;;;31.37;18.07;;;;;;;-2.19;100.00;96760.59;5079391;28;20468;-73
2023/01/26 00:21:30;;;;;;;30.23;19.10;;;;;;;-2.50;100.00;96724.88;5084103;28;20966;-73
2023/01/26 00:23:57;;;;;;;29.13;16.93;;;;;;;-2.35;100.00;96740.66;5075825;28;20436;-73
2023/01/26 00:26:26;;;;;;;27.03;16.73;;;;;;;-2.32;100.00;96758.31;5084951;28;20524;-72
2023/01/26 00:28:53;;;;;;;26.60;18.00;;;;;;;-2.52;100.00;96729.50;5074815;28;20468;-73
2023/01/26 00:31:22;;;;;;;30.60;21.33;;;;;;;-2.44;100.00;96737.66;5085816;28;20908;-73
2023/01/26 00:33:49;;;;;;;31.33;18.10;;;;;;;-2.31;100.00;96738.38;5079939;28;20604;-73
2023/01/26 00:36:16;;;;;;;26.87;17.53;;;;;;;-2.45;100.00;96714.59;5068271;28;20894;-73
2023/01/26 00:38:43;;;;;;;28.33;15.53;;;;;;;-2.57;100.00;96701.69;5053189;28;20455;-73
2023/01/26 00:43:55;;;;;;;31.93;17.00;;;;;;;-2.70;100.00;96681.28;5062473;28;20528;-73
2023/01/26 00:46:22;;;;;;;27.70;17.80;;;;;;;-2.60;100.00;96693.63;5075068;28;20470;-72
2023/01/26 00:48:48;;;;;;;21.27;14.67;;;;;;;-2.58;100.00;96694.97;5067434;28;20490;-73
2023/01/26 00:51:15;;;;;;;30.90;18.93;;;;;;;-2.56;100.00;96692.13;5086572;28;20473;-73
2023/01/26 00:53:42;;;;;;;29.17;16.93;;;;;;;-2.44;100.00;96714.34;5063446;28;20559;-73
2023/01/26 00:56:08;;;;;;;29.07;16.93;;;;;;;-2.61;100.00;96679.13;5052850;28;20532;-73
2023/01/26 00:58:35;;;;;;;29.60;18.70;;;;;;;-2.60;100.00;96678.88;5062225;28;20978;-73
2023/01/26 01:01:03;;;;;;;25.13;16.63;;;;;;;-2.55;100.00;96688.53;5067047;28;20433;-73
2023/01/26 01:03:29;;;;;;;34.57;17.50;;;;;;;-2.27;100.00;96716.97;5064587;28;20420;-73
2023/01/26 01:05:56;;;;;;;23.90;16.53;;;;;;;-2.46;100.00;96692.31;5087712;28;20860;-72
2023/01/26 01:08:23;;;;;;;28.10;17.50;;;;;;;-2.35;100.00;96706.22;5082555;28;20440;-73
2023/01/26 01:10:49;;;;;;;24.27;16.10;;;;;;;-2.93;100.00;96674.44;5050727;28;20440;-73
2023/01/26 01:13:16;;;;;;;25.10;17.30;;;;;;;-3.18;100.00;96642.94;5082522;28;20463;-73
2023/01/26 01:15:45;;;;;;;28.27;15.80;;;;;;;-2.80;100.00;96687.09;5079151;28;20484;-73
2023/01/26 01:18:13;;;;;;;23.20;15.20;;;;;;;-2.92;100.00;96693.34;5092298;28;20795;-73
2023/01/26 01:20:42;;;;;;;23.80;16.83;;;;;;;-3.22;100.00;96621.91;5079737;28;20802;-73
2023/01/26 01:23:09;;;;;;;28.27;16.40;;;;;;;-2.78;100.00;96672.13;5082431;28;20424;-73
2023/01/26 01:25:36;;;;;;;25.97;16.17;;;;;;;-2.61;100.00;96668.78;5068973;28;20871;-73
2023/01/26 01:28:02;;;;;;;27.57;16.37;;;;;;;-2.59;100.00;96667.50;5074927;28;20929;-72
2023/01/26 01:30:29;;;;;;;26.10;16.13;;;;;;;-2.55;100.00;96697.06;5074273;28;20436;-73
2023/01/26 01:32:56;;;;;;;28.33;18.10;;;;;;;-2.62;100.00;96672.38;5073803;28;20958;-73
2023/01/26 01:35:22;;;;;;;28.40;17.43;;;;;;;-2.50;100.00;96694.59;5081684;28;20775;-73
2023/01/26 01:37:49;;;;;;;27.97;17.70;;;;;;;-2.43;100.00;96697.00;5075936;28;20450;-73
2023/01/26 01:40:15;;;;;;;26.70;17.43;;;;;;;-2.69;100.00;96677.69;5079010;28;20510;-73
2023/01/26 01:42:47;;;;;;;29.70;20.33;;;;;;;-3.03;100.00;96664.69;5082157;28;20830;-73
2023/01/26 01:45:37;;;;;;;31.07;17.60;;;;;;;-3.04;100.00;96668.28;5079989;28;20433;-73
2023/01/26 01:48:09;;;;;;;24.93;16.10;;;;;;;-3.18;100.00;96666.22;5054274;28;20543;-73
2023/01/26 01:50:38;;;;;;;29.17;16.30;;;;;;;-3.10;100.00;96697.66;5083215;28;20412;-73
2023/01/26 01:53:10;;;;;;;30.67;19.20;;;;;;;-3.36;100.00;96661.97;5057765;28;20469;-73
2023/01/26 01:55:40;;;;;;;30.87;19.70;;;;;;;-3.36;100.00;96656.81;5074748;28;20438;-73
2023/01/26 01:58:08;;;;;;;31.27;18.37;;;;;;;-3.18;100.00;96690.28;5073327;28;21033;-73
2023/01/26 02:00:34;;;;;;;31.43;19.70;;;;;;;-3.38;100.00;96653.69;5083611;28;20522;-72
2023/01/26 02:03:10;;;;;;;29.63;19.80;;;;;;;-3.06;100.00;96683.25;5074356;28;20916;-74
2023/01/26 02:05:44;;;;;;;28.87;19.23;;;;;;;-3.20;100.00;96655.31;5068569;28;20538;-74
2023/01/26 02:08:14;;;;;;;28.03;17.90;;;;;;;-2.94;100.00;96669.47;5039304;28;20461;-74
2023/01/26 02:10:48;;;;;;;31.80;17.33;;;;;;;-3.14;100.00;96642.25;5074250;28;20539;-74
2023/01/26 02:13:17;;;;;;;27.53;16.80;;;;;;;-3.09;100.00;96647.50;5064509;28;20459;-74
2023/01/26 02:15:44;;;;;;;30.13;19.10;;;;;;;-3.45;100.00;96571.13;5074759;28;21019;-74
2023/01/26 02:18:12;;;;;;;27.73;17.87;;;;;;;-2.85;100.00;96658.53;5081613;28;20546;-74
2023/01/26 02:20:52;;;;;;;30.53;17.60;;;;;;;-3.10;100.00;96614.91;5087361;28;20436;-74
2023/01/26 02:23:48;;;;;;;33.23;18.97;;;;;;;-2.83;100.00;96650.53;5071109;28;20811;-74
2023/01/26 02:26:19;;;;;;;31.67;17.90;;;;;;;-2.79;100.00;96649.06;5037100;28;20562;-74
2023/01/26 02:28:47;;;;;;;27.13;17.27;;;;;;;-2.86;100.00;96643.25;5043803;28;20956;-74
2023/01/26 02:31:15;;;;;;;32.13;17.90;;;;;;;-3.13;100.00;96607.63;5071117;28;20425;-74
2023/01/26 02:33:43;;;;;;;29.37;17.43;;;;;;;-2.82;100.00;96650.31;5075045;28;20516;-74
2023/01/26 02:36:18;;;;;;;29.73;18.70;;;;;;;-2.75;100.00;96613.94;5063069;28;20432;-75
2023/01/26 02:38:56;;;;;;;29.00;16.93;;;;;;;-2.41;100.00;96648.38;5067587;28;20446;-74
2023/01/26 02:44:10;;;;;;;26.77;16.83;;;;;;;-2.58;100.00;96617.31;5090637;28;20451;-74
2023/01/26 02:46:37;;;;;;;29.97;15.80;;;;;;;-2.41;100.00;96630.25;5056965;28;20517;-74
2023/01/26 02:51:51;;;;;;;28.70;17.47;;;;;;;-2.52;100.00;96628.56;5078591;28;20463;-74
2023/01/26 02:57:03;;;;;;;30.00;16.73;;;;;;;-2.54;100.00;96610.66;5070281;28;20459;-74
2023/01/26 02:59:30;;;;;;;27.10;17.13;;;;;;;-2.47;100.00;96623.44;5083563;28;20432;-74
2023/01/26 03:01:57;;;;;;;23.97;15.53;;;;;;;-2.47;100.00;96634.59;5070248;28;20921;-74
2023/01/26 03:04:24;;;;;;;24.57;16.80;;;;;;;-2.59;100.00;96602.03;5073830;28;20427;-74
2023/01/26 03:06:54;;;;;;;30.00;16.53;;;;;;;-2.52;100.00;96623.38;5052944;28;20465;-75
2023/01/26 03:09:21;;;;;;;29.90;17.87;;;;;;;-2.71;100.00;96610.66;5071343;28;20449;-74
2023/01/26 03:11:48;;;;;;;28.47;18.77;;;;;;;-2.73;100.00;96604.16;5057287;28;20627;-75
2023/01/26 03:14:16;;;;;;;28.53;18.00;;;;;;;-2.36;100.00;96616.63;5079031;28;20472;-75
2023/01/26 03:16:43;;;;;;;30.30;17.17;;;;;;;-2.56;100.00;96589.41;5044772;28;20461;-74
2023/01/26 03:27:49;;;;;;;31.73;17.10;;;;;;;-2.42;100.00;96607.97;5077186;28;20853;-75
2023/01/26 03:30:17;;;;;;;31.43;17.70;;;;;;;-2.41;100.00;96601.78;5043471;28;20448;-74
2023/01/26 03:32:46;;;;;;;38.83;19.70;;;;;;;-2.55;100.00;96583.19;5053516;28;20440;-74
2023/01/26 03:35:21;;;;;;;39.87;19.80;;;;;;;-2.41;100.00;96599.19;5083126;28;20503;-74
2023/01/26 03:37:53;;;;;;;30.27;15.60;;;;;;;-2.55;100.00;96580.63;5069599;28;20463;-75
2023/01/26 03:57:13;;;;;;;29.47;15.90;;;;;;;-2.82;100.00;96579.69;5069350;28;20509;-75
2023/01/26 03:59:40;;;;;;;31.20;19.17;;;;;;;-2.77;100.00;96583.16;5069222;28;20821;-74
2023/01/26 04:10:32;;;;;;;27.47;17.93;;;;;;;-2.70;100.00;96588.94;5076939;28;20439;-75
2023/01/26 04:21:29;;;;;;;31.17;17.97;;;;;;;-2.87;100.00;96585.56;5078885;28;20427;-74
2023/01/26 04:24:00;;;;;;;27.03;17.20;;;;;;;-3.09;100.00;96556.22;5051457;28;20437;-75
2023/01/26 04:26:35;;;;;;;30.17;18.20;;;;;;;-2.87;100.00;96579.59;5048941;28;20518;-75
2023/01/26 04:29:08;;;;;;;32.13;17.83;;;;;;;-2.60;100.00;96590.91;5063511;28;20933;-75
2023/01/26 04:31:35;;;;;;;28.77;18.67;;;;;;;-2.50;100.00;96577.34;5069226;28;20531;-75
2023/01/26 04:34:03;;;;;;;34.50;21.20;;;;;;;-2.42;100.00;96590.66;5075456;28;20470;-74
2023/01/26 04:36:30;;;;;;;56.40;30.17;;;;;;;-2.45;100.00;96585.94;5075539;28;20456;-75
2023/01/26 04:38:57;;;;;;;35.57;19.37;;;;;;;-2.48;100.00;96589.00;5063227;28;20496;-74
2023/01/26 04:41:24;;;;;;;69.97;40.13;;;;;;;-3.07;100.00;96498.09;5076041;28;20448;-75
2023/01/26 04:43:59;;;;;;;28.00;16.70;;;;;;;-2.63;100.00;96552.56;5081598;28;20580;-75
2023/01/26 04:46:25;;;;;;;27.80;17.73;;;;;;;-2.78;100.00;96542.00;5039403;28;20461;-75
2023/01/26 04:48:52;;;;;;;31.07;17.07;;;;;;;-2.67;100.00;96567.00;5052701;28;20908;-74
2023/01/26 04:51:20;;;;;;;29.60;16.13;;;;;;;-2.65;100.00;96575.31;5082936;28;20538;-75
2023/01/26 04:53:48;;;;;;;29.07;20.07;;;;;;;-2.45;100.00;96580.00;5077808;28;20463;-75
2023/01/26 04:56:29;;;;;;;27.50;18.23;;;;;;;-2.40;100.00;96582.66;5057243;28;20567;-75
2023/01/26 04:58:58;;;;;;;29.63;16.40;;;;;;;-2.45;100.00;96580.78;5060343;28;20475;-75
2023/01/26 05:01:25;;;;;;;25.77;16.33;;;;;;;-2.46;100.00;96581.00;5077603;28;20468;-75
2023/01/26 05:03:52;;;;;;;33.23;17.50;;;;;;;-2.57;100.00;96551.59;5072736;28;20432;-75
2023/01/26 05:06:19;;;;;;;32.07;16.70;;;;;;;-2.74;100.00;96545.66;5077280;28;20524;-75
2023/01/26 05:08:48;;;;;;;30.50;17.37;;;;;;;-2.47;100.00;96575.06;5051641;28;20487;-74
2023/01/26 05:11:14;;;;;;;29.57;17.60;;;;;;;-2.58;100.00;96573.31;5071145;28;20482;-75
2023/01/26 05:13:55;;;;;;;28.33;17.87;;;;;;;-2.86;100.00;96579.38;5085852;28;20459;-75
2023/01/26 05:16:35;;;;;;;29.33;16.77;;;;;;;-3.03;100.00;96568.22;5068102;28;20955;-74
2023/01/26 05:19:05;;;;;;;34.73;17.80;;;;;;;-3.13;100.00;96561.09;5075511;28;20432;-75
2023/01/26 05:21:50;;;;;;;32.40;17.93;;;;;;;-3.41;100.00;96536.03;5079026;28;20440;-75
2023/01/26 05:24:16;;;;;;;33.53;17.97;;;;;;;-3.34;100.00;96541.06;5085377;28;20435;-75
2023/01/26 05:29:46;;;;;;;29.23;18.40;;;;;;;-2.81;100.00;96583.81;5080398;28;20451;-75
2023/01/26 05:32:13;;;;;;;33.17;18.67;;;;;;;-2.97;100.00;96551.75;5061272;28;20435;-76
2023/01/26 05:34:40;;;;;;;36.00;19.37;;;;;;;-3.13;100.00;96517.13;5085218;28;20491;-75
2023/01/26 05:37:07;;;;;;;35.90;19.80;;;;;;;-2.65;100.00;96577.13;5080439;28;20464;-75
2023/01/26 05:39:36;;;;;;;27.63;16.40;;;;;;;-2.75;100.00;96549.28;5064884;28;20964;-75
2023/01/26 05:42:04;;;;;;;35.33;20.63;;;;;;;-2.91;100.00;96535.31;5079271;28;20441;-75
2023/01/26 05:44:49;;;;;;;27.90;16.50;;;;;;;-2.98;100.00;96540.63;5052746;28;20502;-75
2023/01/26 05:47:17;;;;;;;29.77;17.60;;;;;;;-2.82;100.00;96554.59;5052287;28;20461;-75
2023/01/26 05:49:49;;;;;;;32.13;19.40;;;;;;;-2.65;100.00;96569.34;5052274;28;20495;-76
2023/01/26 05:52:21;;;;;;;32.40;19.10;;;;;;;-2.73;100.00;96568.72;5062516;28;20448;-75
2023/01/26 05:54:49;;;;;;;30.87;18.73;;;;;;;-2.55;100.00;96575.44;5065150;28;20465;-75
2023/01/26 05:57:16;;;;;;;30.80;17.10;;;;;;;-2.52;100.00;96569.81;5062655;28;20569;-76
2023/01/26 05:59:48;;;;;;;33.33;18.13;;;;;;;-2.28;100.00;96582.56;5085306;28;20916;-76
2023/01/26 06:02:16;;;;;;;29.00;19.37;;;;;;;-2.76;100.00;96512.28;5084350;28;20844;-75
2023/01/26 06:04:43;;;;;;;30.73;16.80;;;;;;;-2.46;100.00;96552.53;5072599;28;20522;-76
2023/01/26 06:07:12;;;;;;;32.00;17.60;;;;;;;-2.34;100.00;96579.13;5067135;28;20451;-76
2023/01/26 06:10:06;;;;;;;23.93;18.00;;;;;;;-2.65;100.00;96559.00;5060628;28;20452;-75
2023/01/26 06:12:50;;;;;;;30.43;17.70;;;;;;;-2.27;100.00;96574.56;5071265;28;20428;-76
2023/01/26 06:15:35;;;;;;;25.37;14.87;;;;;;;-2.35;100.00;96589.72;5073038;28;20464;-75
2023/01/26 06:18:02;;;;;;;29.70;16.73;;;;;;;-2.63;100.00;96547.38;5073081;28;20836;-73
2023/01/26 06:20:29;;;;;;;23.40;14.23;;;;;;;-2.46;100.00;96575.84;5070110;28;20444;-73
2023/01/26 06:23:00;;;;;;;30.60;17.43;;;;;;;-2.38;100.00;96589.16;5060386;28;20437;-73
2023/01/26 06:25:28;;;;;;;31.37;16.77;;;;;;;-3.03;100.00;96512.13;5057617;28;20477;-73
2023/01/26 06:27:58;;;;;;;26.87;14.43;;;;;;;-2.50;100.00;96585.88;5064696;28;20952;-73
2023/01/26 06:30:26;;;;;;;30.40;15.00;;;;;;;-2.59;100.00;96569.19;5075014;28;20974;-73
2023/01/26 06:32:57;;;;;;;25.50;13.67;;;;;;;-3.61;100.00;96416.84;5068237;28;20441;-73
2023/01/26 06:35:27;;;;;;;20.27;13.43;;;;;;;-2.71;100.00;96548.56;5055823;28;20972;-73
2023/01/26 06:37:56;;;;;;;22.03;12.33;;;;;;;-2.57;100.00;96587.06;5067117;28;20976;-73
2023/01/26 06:40:23;;;;;;;24.73;15.47;;;;;;;-2.58;100.00;96588.06;5072891;28;20428;-73
2023/01/26 06:42:50;;;;;;;37.97;20.00;;;;;;;-2.74;100.00;96545.66;5083065;28;20435;-73
2023/01/26 06:45:19;;;;;;;26.33;15.27;;;;;;;-2.49;100.00;96587.44;5071210;28;20436;-75
2023/01/26 06:47:48;;;;;;;23.77;16.50;;;;;;;-2.59;100.00;96571.75;5076715;28;20975;-75
2023/01/26 06:50:18;;;;;;;22.70;14.50;;;;;;;-2.65;100.00;96557.19;5063905;28;20440;-75
2023/01/26 06:52:49;;;;;;;22.40;14.87;;;;;;;-2.51;100.00;96591.31;5060473;28;20429;-75
2023/01/26 06:55:50;;;;;;;19.63;13.10;;;;;;;-2.93;100.00;96508.91;5066860;28;20471;-76
2023/01/26 06:58:35;;;;;;;18.93;11.03;;;;;;;-2.61;100.00;96563.47;5070276;28;20440;-75
2023/01/26 07:01:23;;;;;;;21.17;12.60;;;;;;;-2.49;100.00;96590.03;5085270;28;20415;-75
2023/01/26 07:03:51;;;;;;;21.10;13.77;;;;;;;-2.78;100.00;96550.53;5070410;28;20933;-75
2023/01/26 07:06:21;;;;;;;26.10;13.23;;;;;;;-2.54;100.00;96581.41;5079459;28;20949;-75
2023/01/26 07:08:47;;;;;;;22.40;12.57;;;;;;;-2.48;100.00;96586.44;5050333;28;20441;-76
2023/01/26 07:11:15;;;;;;;18.10;10.80;;;;;;;-2.58;100.00;96570.75;5068908;28;20433;-75
2023/01/26 07:13:42;;;;;;;22.53;12.77;;;;;;;-2.58;100.00;96575.91;5071384;28;20428;-75
2023/01/26 07:16:11;;;;;;;23.77;12.87;;;;;;;-2.43;100.00;96583.91;5076696;28;20566;-75
2023/01/26 07:18:38;;;;;;;22.80;12.33;;;;;;;-2.57;100.00;96582.66;5089371;28;20441;-75
2023/01/26 07:21:09;;;;;;;23.83;14.60;;;;;;;-2.40;100.00;96587.84;5060694;28;20811;-75
2023/01/26 07:23:36;;;;;;;20.10;15.03;;;;;;;-2.51;100.00;96592.09;5076452;28;20529;-75
2023/01/26 07:26:03;;;;;;;31.53;17.30;;;;;;;-2.65;100.00;96575.31;5083238;28;20443;-75
2023/01/26 07:28:30;;;;;;;23.77;13.17;;;;;;;-2.70;100.00;96551.94;5065050;28;20441;-75
2023/01/26 07:30:57;;;;;;;22.37;14.60;;;;;;;-2.65;100.00;96556.41;5057992;28;20464;-75
2023/01/26 07:33:24;;;;;;;27.53;15.53;;;;;;;-2.71;100.00;96545.19;5072889;28;20439;-75
2023/01/26 07:35:55;;;;;;;28.07;15.57;;;;;;;-2.72;100.00;96520.34;5082459;28;20464;-75
2023/01/26 07:38:22;;;;;;;23.80;14.07;;;;;;;-2.57;100.00;96567.13;5071994;28;20787;-74
2023/01/26 07:40:49;;;;;;;30.47;16.07;;;;;;;-2.95;100.00;96536.00;5070715;28;20479;-75
2023/01/26 07:43:16;;;;;;;27.40;14.13;;;;;;;-2.60;100.00;96570.19;5065583;28;20432;-75
2023/01/26 07:45:53;;;;;;;21.43;13.20;;;;;;;-2.44;100.00;96581.56;5080491;28;20807;-75
2023/01/26 07:48:22;;;;;;;27.83;14.47;;;;;;;-2.40;100.00;96582.66;5075891;28;20447;-75
2023/01/26 07:50:50;;;;;;;25.73;13.90;;;;;;;-2.53;100.00;96583.00;5078165;28;20879;-75
2023/01/26 07:53:21;;;;;;;24.37;15.57;;;;;;;-2.57;100.00;96561.19;5069529;28;20424;-75
2023/01/26 07:55:48;;;;;;;20.97;12.80;;;;;;;-2.57;100.00;96545.66;5052681;28;20572;-76
2023/01/26 07:58:17;;;;;;;22.87;12.63;;;;;;;-2.83;100.00;96554.81;5063302;28;20453;-75
2023/01/26 08:00:47;;;;;;;21.33;11.90;;;;;;;-3.11;100.00;96529.81;5062308;28;20494;-75
2023/01/26 08:03:13;;;;;;;23.70;12.70;;;;;;;-2.95;100.00;96539.38;5069332;28;20436;-75
2023/01/26 08:05:42;;;;;;;22.27;12.03;;;;;;;-2.75;100.00;96580.31;5052938;28;20895;-75
2023/01/26 08:08:09;;;;;;;24.03;13.47;;;;;;;-2.85;100.00;96562.03;5057821;28;20484;-75
2023/01/26 08:10:35;;;;;;;23.80;14.10;;;;;;;-2.60;100.00;96557.25;5063496;28;20536;-75
2023/01/26 08:13:02;;;;;;;23.03;11.90;;;;;;;-2.51;100.00;96586.91;5060442;28;20439;-75
2023/01/26 08:15:29;;;;;;;23.50;12.67;;;;;;;-2.77;100.00;96569.44;5060085;28;20461;-76
2023/01/26 08:17:55;;;;;;;22.83;14.83;;;;;;;-2.65;100.00;96580.47;5056835;28;20486;-75
2023/01/26 08:20:22;;;;;;;25.20;12.63;;;;;;;-2.87;100.00;96549.34;5069442;28;20539;-75
2023/01/26 08:22:49;;;;;;;20.60;12.83;;;;;;;-2.68;100.00;96576.53;5060444;28;20435;-75
2023/01/26 08:25:16;;;;;;;23.90;14.30;;;;;;;-2.78;100.00;96536.81;5074665;28;20603;-75
2023/01/26 08:27:42;;;;;;;24.87;14.00;;;;;;;-2.53;100.00;96586.38;5062473;28;20488;-75
2023/01/26 08:30:10;;;;;;;16.60;11.40;;;;;;;-2.64;100.00;96579.47;5077207;28;20436;-76
2023/01/26 08:32:37;;;;;;;18.30;12.40;;;;;;;-2.79;100.00;96577.44;5077941;28;20510;-75
2023/01/26 08:35:04;;;;;;;21.80;10.70;;;;;;;-2.71;100.00;96548.56;5075812;28;20464;-76
2023/01/26 08:37:30;;;;;;;13.60;9.13;;;;;;;-2.54;100.00;96543.34;5080181;28;20466;-76
2023/01/26 08:39:57;;;;;;;17.07;10.30;;;;;;;-2.55;100.00;96534.03;5080520;28;20431;-75
2023/01/26 08:42:24;;;;;;;16.63;10.63;;;;;;;-2.50;100.00;96557.41;5061990;28;20534;-75
2023/01/26 08:44:51;;;;;;;16.97;10.17;;;;;;;-2.80;100.00;96526.72;5085666;28;20455;-75
2023/01/26 08:47:18;;;;;;;25.63;12.20;;;;;;;-2.60;100.00;96546.91;5071109;28;20554;-75
2023/01/26 08:49:44;;;;;;;17.67;11.00;;;;;;;-2.47;100.00;96559.53;5076823;28;20527;-75
2023/01/26 08:52:11;;;;;;;15.80;9.87;;;;;;;-2.79;100.00;96528.28;5083539;28;20518;-75
2023/01/26 08:54:40;;;;;;;19.93;9.47;;;;;;;-2.68;100.00;96562.81;5059472;28;20862;-75
2023/01/26 08:57:06;;;;;;;14.50;9.37;;;;;;;-2.75;100.00;96549.28;5063686;28;20990;-75
2023/01/26 08:59:33;;;;;;;15.53;9.07;;;;;;;-2.85;100.00;96543.94;5075667;28;20508;-75
2023/01/26 09:01:59;;;;;;;16.27;9.90;;;;;;;-2.72;100.00;96541.03;5078560;28;20443;-75
2023/01/26 09:04:26;;;;;;;19.50;12.20;;;;;;;-2.84;100.00;96535.16;5059191;28;20506;-75
2023/01/26 09:06:53;;;;;;;16.93;10.47;;;;;;;-2.63;100.00;96557.75;5067079;28;20460;-75
2023/01/26 09:09:20;;;;;;;23.70;11.00;;;;;;;-2.60;100.00;96528.00;5060598;28;20444;-75
2023/01/26 09:11:46;;;;;;;14.63;9.87;;;;;;;-2.63;100.00;96529.28;5071168;28;20468;-75
2023/01/26 09:14:15;;;;;;;15.23;9.80;;;;;;;-2.49;100.00;96551.22;5060294;28;20850;-75
2023/01/26 09:16:42;;;;;;;19.80;12.23;;;;;;;-2.54;100.00;96556.31;5070506;28;20472;-75
2023/01/26 09:19:08;;;;;;;15.77;9.60;;;;;;;-2.71;100.00;96534.84;5085506;28;20437;-76
2023/01/26 09:21:35;;;;;;;16.13;10.90;;;;;;;-2.51;100.00;96560.25;5064812;28;20442;-75
2023/01/26 09:24:02;;;;;;;14.90;9.43;;;;;;;-2.60;100.00;96557.25;5078428;28;20434;-76
2023/01/26 09:26:30;;;;;;;17.10;9.63;;;;;;;-2.69;100.00;96564.63;5072332;28;20468;-75
2023/01/26 09:28:56;;;;;;;11.10;7.77;;;;;;;-2.63;100.00;96559.53;5062231;28;20786;-75
2023/01/26 09:31:23;;;;;;;12.60;9.03;;;;;;;-2.49;100.00;96551.22;5072271;28;20781;-75
2023/01/26 09:33:50;;;;;;;10.30;8.13;;;;;;;-2.40;100.00;96530.91;5075325;28;20437;-75
2023/01/26 09:36:17;;;;;;;11.47;7.93;;;;;;;-2.19;100.00;96566.38;5069364;28;20526;-75
2023/01/26 09:38:44;;;;;;;15.37;9.10;;;;;;;-2.22;100.00;96561.69;5056883;28;20444;-75
2023/01/26 09:41:32;;;;;;;12.53;7.23;;;;;;;-2.30;100.00;96569.84;5067014;28;20841;-75
2023/01/26 09:44:17;;;;;;;12.63;8.60;;;;;;;-2.71;100.00;96540.00;5060480;28;20480;-75
2023/01/26 09:47:00;;;;;;;14.30;7.70;;;;;;;-2.72;100.00;96547.00;5072199;28;20536;-75
2023/01/26 09:49:33;;;;;;;13.80;8.20;;;;;;;-2.41;100.00;96565.53;5068746;28;20464;-75
2023/01/26 09:52:05;;;;;;;12.00;8.43;;;;;;;-2.53;100.00;96552.72;5057101;28;20467;-75
2023/01/26 09:54:42;;;;;;;12.00;8.67;;;;;;;-2.53;100.00;96573.41;5071728;28;20452;-75
2023/01/26 09:57:19;;;;;;;12.23;7.87;;;;;;;-2.59;100.00;96563.22;5071716;28;20979;-75
2023/01/26 10:00:27;;;;;;;12.57;7.57;;;;;;;-2.56;100.00;96571.28;5060852;28;20436;-75
2023/01/26 10:03:05;;;;;;;12.10;7.13;;;;;;;-2.47;100.00;96567.28;4991304;28;20448;-75
2023/01/26 10:06:01;;;;;;;14.90;9.10;;;;;;;-2.14;100.00;96565.66;5064923;28;20527;-75
2023/01/26 10:08:48;;;;;;;13.37;7.27;;;;;;;-2.23;100.00;96567.88;5068456;28;20459;-75
2023/01/26 10:11:36;;;;;;;13.87;8.87;;;;;;;-1.99;100.00;96571.06;5075834;28;20433;-76
2023/01/26 10:14:20;;;;;;;33.20;20.43;;;;;;;-2.25;100.00;96543.25;5101255;28;20443;-76
2023/01/26 10:16:51;;;;;;;13.80;9.03;;;;;;;-2.43;100.00;96562.41;5089082;28;20463;-76
2023/01/26 10:19:34;;;;;;;16.30;9.03;;;;;;;-2.55;100.00;96564.31;5057244;28;20449;-75
2023/01/26 10:22:13;;;;;;;14.63;7.93;;;;;;;-2.48;100.00;96554.59;5083541;28;20996;-74
2023/01/26 10:24:51;;;;;;;15.10;9.20;;;;;;;-2.49;100.00;96527.13;5083630;28;21000;-75
2023/01/26 10:27:18;;;;;;;16.17;8.73;;;;;;;-2.65;100.00;96528.72;5049581;28;20516;-75
2023/01/26 10:29:45;;;;;;;15.53;9.87;;;;;;;-2.78;100.00;96508.34;5068217;28;20436;-75
2023/01/26 10:32:15;;;;;;;15.80;10.00;;;;;;;-2.50;100.00;96539.31;5054360;28;20448;-75
2023/01/26 10:34:45;;;;;;;15.40;8.10;;;;;;;-2.79;100.00;96499.03;5065603;28;20484;-75
2023/01/26 10:37:41;;;;;;;17.60;8.57;;;;;;;-2.64;100.00;96530.28;5061354;28;20907;-75
2023/01/26 10:40:08;;;;;;;22.60;11.60;;;;;;;-2.70;100.00;96498.38;5056865;28;20427;-75
2023/01/26 10:42:36;;;;;;;25.10;12.60;;;;;;;-2.71;100.00;96527.06;5047293;28;21029;-75
2023/01/26 10:45:06;;;;;;;26.20;10.37;;;;;;;-2.59;100.00;96534.75;5081440;28;20474;-75
2023/01/26 10:47:33;;;;;;;23.87;10.63;;;;;;;-2.92;100.00;96510.47;5077163;28;20821;-75
2023/01/26 10:50:20;;;;;;;13.60;8.83;;;;;;;-2.77;100.00;96520.28;5084374;28;20511;-75
2023/01/26 10:53:01;;;;;;;19.57;13.27;;;;;;;-2.65;100.00;96525.38;5084012;28;20436;-75
2023/01/26 10:55:33;;;;;;;17.17;10.07;;;;;;;-2.64;100.00;96527.72;5071745;28;21077;-75
2023/01/26 10:58:00;;;;;;;13.03;8.97;;;;;;;-2.91;100.00;96493.94;5073862;28;20998;-75
2023/01/26 11:00:30;;;;;;;24.63;10.83;;;;;;;-2.81;100.00;96499.25;5057656;28;20521;-75
2023/01/26 11:03:15;;;;;;;23.70;10.50;;;;;;;-2.72;100.00;96513.34;5083514;28;20463;-75
2023/01/26 11:05:46;;;;;;;17.40;9.73;;;;;;;-2.92;100.00;96496.78;5069192;28;20436;-75
2023/01/26 11:08:49;;;;;;;17.37;10.10;;;;;;;-2.72;100.00;96534.06;5082171;28;20455;-75
2023/01/26 11:11:28;;;;;;;14.67;8.03;;;;;;;-2.73;100.00;96544.63;4935197;29;20480;-75
2023/01/26 11:14:11;;;;;;;20.83;10.13;;;;;;;-2.69;100.00;96528.41;5051318;28;20526;-75
2023/01/26 11:16:39;;;;;;;17.13;8.33;;;;;;;-2.97;100.00;96495.66;5062325;28;20855;-75
2023/01/26 11:19:20;;;;;;;20.20;10.60;;;;;;;-2.55;100.00;96526.28;5079348;28;20427;-75
2023/01/26 11:22:03;;;;;;;20.93;12.27;;;;;;;-2.50;100.00;96512.63;5056518;28;20481;-75
2023/01/26 11:24:53;;;;;;;22.60;10.63;;;;;;;-2.38;100.00;96524.47;5082213;28;20443;-75
2023/01/26 11:27:26;;;;;;;12.90;8.90;;;;;;;-2.59;100.00;96522.59;5054683;28;20458;-75
2023/01/26 11:29:56;;;;;;;18.60;10.80;;;;;;;-2.68;100.00;96529.97;5074206;28;20436;-75
2023/01/26 11:32:28;;;;;;;17.50;10.30;;;;;;;-2.71;100.00;96522.69;5081527;28;20430;-75
2023/01/26 11:35:14;;;;;;;18.20;9.37;;;;;;;-2.58;100.00;96518.19;5077546;28;20516;-75
2023/01/26 11:37:55;;;;;;;16.83;9.47;;;;;;;-2.59;100.00;96514.06;5061499;28;20445;-76
2023/01/26 11:40:52;;;;;;;21.27;10.53;;;;;;;-2.71;100.00;96512.34;5058889;28;20436;-75
2023/01/26 11:43:47;;;;;;;16.50;9.10;;;;;;;-2.69;100.00;96512.88;5063400;28;20533;-75
2023/01/26 11:47:01;;;;;;;19.20;9.97;;;;;;;-2.75;100.00;96505.28;5076412;28;21050;-75
2023/01/26 11:50:04;;;;;;;21.17;10.60;;;;;;;-2.40;100.00;96497.25;5063434;28;20468;-75
2023/01/26 11:52:49;;;;;;;15.63;8.67;;;;;;;-2.43;100.00;96502.88;5082816;28;20435;-75
2023/01/26 11:55:37;;;;;;;17.30;9.83;;;;;;;-2.21;100.00;96502.91;5081346;28;20422;-75
2023/01/26 11:58:25;;;;;;;17.10;10.70;;;;;;;-2.30;100.00;96497.34;5065111;28;20448;-75
2023/01/26 12:00:56;;;;;;;18.27;9.93;;;;;;;-2.79;100.00;96473.16;5080382;28;20458;-75
2023/01/26 12:03:32;;;;;;;17.93;8.23;;;;;;;-2.57;100.00;96494.66;5077697;28;20422;-75
2023/01/26 12:06:06;;;;;;;13.47;8.97;;;;;;;-2.74;100.00;96463.66;5063319;28;20444;-75
2023/01/26 12:08:58;;;;;;;24.60;9.03;;;;;;;-2.85;100.00;96448.22;5080585;28;20510;-75
2023/01/26 12:11:32;;;;;;;16.73;8.90;;;;;;;-3.03;100.00;96449.28;5067272;28;20467;-75
2023/01/26 12:14:15;;;;;;;18.03;9.90;;;;;;;-2.79;100.00;96480.94;5049243;28;20909;-75
2023/01/26 12:16:41;;;;;;;14.17;9.00;;;;;;;-2.76;100.00;96473.47;5067377;28;20475;-75
2023/01/26 12:19:16;;;;;;;22.90;9.63;;;;;;;-3.12;100.00;96425.63;5066994;28;21004;-75
2023/01/26 12:21:44;;;;;;;19.33;10.00;;;;;;;-2.78;100.00;96472.94;5082731;28;20569;-75
2023/01/26 12:24:39;;;;;;;24.37;10.20;;;;;;;-2.48;100.00;96472.53;5079712;28;20912;-75
2023/01/26 12:27:39;;;;;;;18.67;9.93;;;;;;;-2.52;100.00;96460.34;5049602;28;20459;-75
2023/01/26 12:30:18;;;;;;;17.90;10.50;;;;;;;-2.41;100.00;96462.78;5056555;28;20522;-75